createdAt,value
2019-04-23T00:01:59.789Z,52.87
2019-04-23T00:04:05.718Z,41.83
2019-04-23T00:06:18.997Z,57.80
2019-04-23T00:08:26.052Z,23.07
2019-04-23T00:10:51.528Z,53.77
2019-04-23T00:15:04.893Z,14.30
2019-04-23T00:17:11.505Z,17.07
2019-04-23T00:19:15.276Z,39.77
2019-04-23T00:21:42.987Z,16.23
2019-04-23T00:23:59.545Z,14.67
2019-04-23T00:26:13.734Z,16.77
2019-04-23T00:28:31.822Z,14.23
2019-04-23T00:30:36.278Z,15.60
2019-04-23T00:32:40.845Z,15.17
2019-04-23T00:34:55.895Z,16.27
2019-04-23T00:37:01.613Z,16.50
2019-04-23T00:39:10.315Z,12.63
2019-04-23T00:41:16.199Z,17.80
2019-04-23T00:43:30.308Z,18.87
2019-04-23T00:45:39.823Z,16.63
2019-04-23T00:47:45.041Z,14.50
2019-04-23T00:50:08.611Z,12.07
2019-04-23T00:52:09.373Z,18.20
2019-04-23T00:54:20.712Z,18.33
2019-04-23T00:56:42.076Z,13.93
2019-04-23T00:58:36.629Z,16.47
2019-04-23T01:00:47.315Z,13.50
2019-04-23T01:02:57.318Z,13.67
2019-04-23T01:07:12.814Z,14.53
2019-04-23T01:09:22.680Z,11.00
2019-04-23T01:11:46.570Z,13.70
2019-04-23T01:13:43.184Z,13.77
2019-04-23T01:15:53.970Z,14.90
2019-04-23T01:18:02.262Z,12.50
2019-04-23T01:20:15.713Z,10.17
2019-04-23T01:22:04.214Z,12.77
2019-04-23T01:24:34.347Z,11.27
2019-04-23T01:27:39.319Z,13.87
2019-04-23T01:29:37.824Z,12.00
2019-04-23T01:31:41.272Z,10.20
2019-04-23T01:33:51.450Z,13.30
2019-04-23T01:36:09.627Z,15.40
2019-04-23T01:38:04.787Z,11.27
2019-04-23T01:40:24.006Z,10.60
2019-04-23T01:42:39.382Z,15.77
2019-04-23T01:44:42.358Z,13.07
2019-04-23T01:46:49.467Z,11.30
2019-04-23T01:48:58.656Z,12.67
2019-04-23T01:53:23.279Z,12.57
2019-04-23T01:55:27.993Z,11.80
2019-04-23T01:57:40.901Z,13.57
2019-04-23T01:59:50.920Z,11.80
2019-04-23T02:06:14.694Z,13.33
2019-04-23T02:08:20.872Z,12.03
2019-04-23T02:10:39.492Z,11.70
2019-04-23T02:12:47.730Z,12.13
2019-04-23T02:15:00.219Z,12.30
2019-04-23T02:17:00.169Z,13.03
2019-04-23T02:23:39.601Z,14.00
2019-04-23T02:28:07.560Z,20.93
2019-04-23T02:32:19.510Z,12.50
2019-04-23T02:34:50.440Z,11.87
2019-04-23T02:36:54.523Z,12.87
2019-04-23T02:41:05.274Z,15.30
2019-04-23T02:45:16.999Z,11.50
2019-04-23T02:49:44.190Z,12.73
2019-04-23T02:58:18.656Z,17.23
2019-04-23T03:00:28.352Z,15.00
2019-04-23T03:04:55.509Z,16.40
2019-04-23T03:06:56.370Z,17.07
2019-04-23T03:09:00.765Z,13.03
2019-04-23T03:11:23.450Z,12.77
2019-04-23T03:16:00.753Z,186.50
2019-04-23T03:18:40.075Z,180.90
2019-04-23T03:21:19.624Z,179.60
2019-04-23T03:23:46.703Z,166.80
2019-04-23T03:38:47.095Z,14.83
2019-04-23T03:40:45.642Z,14.10
2019-04-23T03:43:01.320Z,10.97
2019-04-23T03:45:07.547Z,12.10
2019-04-23T03:47:18.459Z,11.00
2019-04-23T03:49:20.630Z,10.53
2019-04-23T03:51:33.783Z,14.13
2019-04-23T03:54:20.922Z,11.60
2019-04-23T03:58:30.649Z,13.30
2019-04-23T04:00:37.218Z,12.17
2019-04-23T04:04:44.627Z,14.30
2019-04-23T04:09:26.035Z,11.67
2019-04-23T04:11:19.245Z,12.07
2019-04-23T04:18:03.957Z,10.57
2019-04-23T04:22:21.721Z,12.70
2019-04-23T04:26:37.807Z,13.60
2019-04-23T04:35:16.169Z,13.43
2019-04-23T04:39:26.617Z,12.57
2019-04-23T04:41:40.549Z,17.80
2019-04-23T04:43:50.692Z,10.80
2019-04-23T04:46:12.781Z,11.90
2019-04-23T04:47:59.075Z,15.20
2019-04-23T04:50:06.507Z,11.37
2019-04-23T04:54:22.663Z,14.50
2019-04-23T04:58:57.858Z,12.10
2019-04-23T05:01:07.628Z,12.63
2019-04-23T05:06:01.874Z,12.80
2019-04-23T05:09:52.156Z,13.83
2019-04-23T05:12:03.646Z,15.53
2019-04-23T05:14:00.044Z,10.83
2019-04-23T05:16:07.724Z,12.50
2019-04-23T05:20:37.396Z,13.93
2019-04-23T05:22:49.330Z,14.23
2019-04-23T05:24:51.465Z,12.93
2019-04-23T05:29:19.971Z,11.03
2019-04-23T05:33:28.745Z,14.20
2019-04-23T05:36:07.153Z,14.07
2019-04-23T05:40:09.898Z,13.57
2019-04-23T05:42:11.210Z,14.47
2019-04-23T05:44:21.574Z,11.43
2019-04-23T05:46:33.704Z,12.67
2019-04-23T05:48:42.017Z,14.13
2019-04-23T05:52:59.058Z,12.73
2019-04-23T05:57:14.297Z,12.17
2019-04-23T05:59:23.234Z,11.57
2019-04-23T06:03:48.946Z,9.67
2019-04-23T06:06:08.118Z,12.63
2019-04-23T06:08:03.067Z,9.93
2019-04-23T06:10:13.442Z,11.47
2019-04-23T06:12:20.045Z,10.83
2019-04-23T06:14:32.859Z,10.33
2019-04-23T06:17:06.298Z,12.97
2019-04-23T06:18:59.261Z,10.73
2019-04-23T06:21:02.609Z,10.07
2019-04-23T06:23:20.930Z,20.47
2019-04-23T06:27:32.340Z,14.50
2019-04-23T06:29:44.665Z,15.47
2019-04-23T06:31:52.614Z,17.93
2019-04-23T06:34:03.395Z,10.87
2019-04-23T06:36:12.402Z,17.57
2019-04-23T06:40:26.593Z,18.60
2019-04-23T06:42:54.062Z,12.70
2019-04-23T06:45:01.004Z,13.03
2019-04-23T06:47:06.965Z,25.90
2019-04-23T06:49:27.083Z,17.87
2019-04-23T06:51:34.936Z,12.80
2019-04-23T06:53:35.947Z,10.63
2019-04-23T06:55:49.597Z,12.07
2019-04-23T06:58:10.554Z,14.17
2019-04-23T07:00:07.916Z,12.20
2019-04-23T07:02:33.821Z,14.17
2019-04-23T07:06:38.331Z,13.30
2019-04-23T07:10:59.165Z,13.63
2019-04-23T07:13:14.716Z,8.40
2019-04-23T07:15:32.168Z,13.60
2019-04-23T07:17:24.679Z,14.80
2019-04-23T07:19:37.446Z,14.63
2019-04-23T07:21:43.647Z,8.87
2019-04-23T07:23:59.176Z,13.03
2019-04-23T07:26:21.287Z,15.43
2019-04-23T07:28:20.789Z,11.80
2019-04-23T07:30:38.352Z,14.00
2019-04-23T07:32:36.249Z,14.03
2019-04-23T07:34:49.488Z,19.50
2019-04-23T07:36:55.762Z,17.27
2019-04-23T07:39:43.084Z,17.17
2019-04-23T07:41:56.024Z,12.37
2019-04-23T07:47:11.728Z,19.23
2019-04-23T07:49:06.739Z,16.03
2019-04-23T07:51:14.208Z,13.53
2019-04-23T07:53:22.904Z,20.37
2019-04-23T07:55:58.946Z,16.57
2019-04-23T07:57:49.602Z,16.03
2019-04-23T08:02:17.211Z,16.83
2019-04-23T08:04:16.532Z,17.00
2019-04-23T08:06:23.417Z,12.17
2019-04-23T08:08:30.193Z,18.60
2019-04-23T08:11:12.458Z,14.05
2019-04-23T08:13:05.982Z,12.83
2019-04-23T08:15:13.305Z,18.00
2019-04-23T08:17:16.225Z,16.17
2019-04-23T08:19:33.109Z,14.30
2019-04-23T08:21:32.191Z,15.87
2019-04-23T08:26:33.634Z,18.17
2019-04-23T08:28:48.377Z,13.95
2019-04-23T08:30:56.785Z,19.55
2019-04-23T08:33:09.100Z,31.53
2019-04-23T08:35:06.449Z,22.98
2019-04-23T08:37:25.325Z,23.02
2019-04-23T08:39:41.847Z,25.75
2019-04-23T08:42:01.341Z,17.25
2019-04-23T08:43:57.221Z,18.73
2019-04-23T08:46:33.525Z,20.20
2019-04-23T08:48:32.849Z,22.48
2019-04-23T08:50:44.278Z,32.73
2019-04-23T08:53:15.014Z,18.15
2019-04-23T08:57:14.506Z,36.70
2019-04-23T08:59:35.065Z,18.82
2019-04-23T09:01:43.560Z,21.30
2019-04-23T09:03:39.159Z,16.87
2019-04-23T09:12:28.344Z,19.67
2019-04-23T09:14:31.522Z,17.35
2019-04-23T09:16:52.849Z,17.85
2019-04-23T09:19:04.578Z,31.97
2019-04-23T09:21:10.560Z,15.15
2019-04-23T09:23:20.836Z,20.72
2019-04-23T09:29:53.602Z,21.45
2019-04-23T09:34:38.731Z,20.70
2019-04-23T09:37:08.206Z,17.12
2019-04-23T09:39:28.960Z,17.70
2019-04-23T09:41:51.794Z,25.10
2019-04-23T09:47:00.399Z,18.15
2019-04-23T09:49:14.962Z,23.60
2019-04-23T09:51:17.622Z,15.53
2019-04-23T10:07:17.985Z,24.57
2019-04-23T10:09:14.566Z,15.72
2019-04-23T10:23:29.555Z,24.18
2019-04-23T10:25:38.462Z,19.17
2019-04-23T10:27:53.274Z,21.85
2019-04-23T10:29:57.085Z,15.35
2019-04-23T10:32:05.259Z,23.62
2019-04-23T10:34:14.818Z,18.27
2019-04-23T10:36:25.886Z,25.80
2019-04-23T10:38:34.639Z,30.02
2019-04-23T10:40:47.873Z,21.60
2019-04-23T10:42:54.359Z,17.05
2019-04-23T10:45:35.190Z,14.98
2019-04-23T10:48:32.664Z,19.82
2019-04-23T10:50:46.219Z,19.52
2019-04-23T10:52:53.767Z,19.52
2019-04-23T10:54:59.382Z,17.15
2019-04-23T10:57:14.826Z,19.70
2019-04-23T11:01:52.952Z,21.75
2019-04-23T11:04:12.011Z,25.48
2019-04-23T11:06:16.535Z,21.97
2019-04-23T11:08:18.948Z,25.00
2019-04-23T11:10:28.675Z,20.75
2019-04-23T11:12:46.188Z,31.40
2019-04-23T11:17:35.473Z,13.75
2019-04-23T11:19:44.006Z,23.55
2019-04-23T11:21:40.741Z,17.23
2019-04-23T11:24:02.555Z,16.52
2019-04-23T11:26:06.839Z,21.82
2019-04-23T11:32:46.668Z,22.00
2019-04-23T11:39:16.477Z,19.73
2019-04-23T11:41:20.746Z,19.87
2019-04-23T11:43:32.956Z,19.32
2019-04-23T11:45:38.781Z,15.65
2019-04-23T11:48:14.219Z,20.70
2019-04-23T11:50:01.514Z,22.32
2019-04-23T11:52:18.895Z,21.17
2019-04-23T11:54:12.107Z,23.35
2019-04-23T11:56:44.762Z,21.50
2019-04-23T11:58:33.283Z,13.75
2019-04-23T12:00:56.222Z,16.97
2019-04-23T12:03:07.605Z,17.95
2019-04-23T12:06:07.362Z,20.90
2019-04-23T12:08:16.966Z,15.23
2019-04-23T12:10:29.237Z,26.17
2019-04-23T12:12:33.334Z,21.35
2019-04-23T12:15:03.514Z,28.38
2019-04-23T12:17:18.646Z,21.07
2019-04-23T12:21:37.365Z,18.02
2019-04-23T12:23:48.450Z,15.05
2019-04-23T12:25:52.783Z,19.42
2019-04-23T12:27:59.568Z,18.57
2019-04-23T12:32:47.879Z,15.75
2019-04-23T12:34:46.834Z,13.65
2019-04-23T12:36:50.929Z,15.83
2019-04-23T12:39:04.622Z,24.90
2019-04-23T12:41:12.915Z,17.90
2019-04-23T12:43:19.133Z,15.13
2019-04-23T12:45:43.983Z,24.95
2019-04-23T12:47:51.929Z,19.17
2019-04-23T12:52:12.093Z,19.40
2019-04-23T12:54:35.316Z,27.77
2019-04-23T12:56:41.900Z,24.98
2019-04-23T12:58:27.857Z,15.58
2019-04-23T13:00:38.856Z,34.25
2019-04-23T13:05:23.861Z,22.55
2019-04-23T13:07:17.902Z,20.82
2019-04-23T13:11:34.826Z,21.45
2019-04-23T13:13:50.283Z,18.92
2019-04-23T13:15:55.219Z,18.07
2019-04-23T13:18:03.319Z,19.35
2019-04-23T13:20:19.995Z,21.95
2019-04-23T13:22:30.722Z,23.52
2019-04-23T13:24:53.926Z,22.22
2019-04-23T13:27:06.112Z,19.15
2019-04-23T13:29:23.755Z,23.25
2019-04-23T13:31:14.800Z,20.90
2019-04-23T13:40:01.347Z,15.03
2019-04-23T13:42:25.105Z,18.40
2019-04-23T13:44:27.645Z,15.95
2019-04-23T13:46:32.447Z,16.10
2019-04-23T13:48:35.971Z,22.55
2019-04-23T13:50:59.698Z,24.82
2019-04-23T13:53:28.760Z,18.90
2019-04-23T13:57:56.018Z,20.72
2019-04-23T13:59:38.955Z,20.82
2019-04-23T14:01:54.440Z,23.12
2019-04-23T14:03:48.248Z,18.37
2019-04-23T14:10:46.630Z,16.15
2019-04-23T14:13:08.819Z,23.40
2019-04-23T14:17:26.812Z,18.70
2019-04-23T14:19:16.544Z,13.22
2019-04-23T14:21:34.521Z,25.02
2019-04-23T14:28:16.007Z,18.32
2019-04-23T14:32:22.347Z,19.52
2019-04-23T14:34:40.839Z,26.62
2019-04-23T14:36:42.562Z,26.90
2019-04-23T14:38:52.774Z,21.57
2019-04-23T14:41:09.590Z,18.80
2019-04-23T14:43:25.901Z,19.00
2019-04-23T14:45:44.231Z,19.67
2019-04-23T14:47:48.831Z,14.73
2019-04-23T14:50:28.172Z,20.55
2019-04-23T14:52:21.902Z,19.73
2019-04-23T14:55:06.028Z,19.57
2019-04-23T14:56:42.044Z,24.25
2019-04-23T15:01:16.059Z,22.20
2019-04-23T15:03:25.210Z,20.02
2019-04-23T15:05:17.551Z,15.70
2019-04-23T15:07:28.521Z,16.10
2019-04-23T15:09:42.984Z,25.20
2019-04-23T15:16:17.134Z,22.50
2019-04-23T15:21:19.046Z,18.23
2019-04-23T15:23:25.699Z,18.77
2019-04-23T15:28:03.670Z,15.15
2019-04-23T15:29:27.426Z,17.60
2019-04-23T15:36:25.366Z,16.15
2019-04-23T15:40:27.873Z,17.48
2019-04-23T15:42:45.233Z,14.45
2019-04-23T15:44:48.817Z,18.60
2019-04-23T15:51:30.896Z,19.85
2019-04-23T15:53:21.117Z,23.85
2019-04-23T15:58:00.937Z,21.52
2019-04-23T15:59:55.897Z,14.65
2019-04-23T16:01:43.269Z,18.62
2019-04-23T16:03:49.645Z,23.38
2019-04-23T16:05:59.392Z,15.90
2019-04-23T16:08:47.632Z,16.90
2019-04-23T16:10:54.527Z,17.07
2019-04-23T16:12:56.699Z,18.23
2019-04-23T16:17:18.216Z,16.80
2019-04-23T16:19:52.869Z,21.93
2019-04-23T16:24:07.171Z,17.35
2019-04-23T16:26:15.857Z,24.57
2019-04-23T16:28:38.461Z,27.98
2019-04-23T16:30:33.252Z,18.55
2019-04-23T16:33:13.106Z,21.73
2019-04-23T16:35:28.362Z,20.27
2019-04-23T16:37:27.296Z,19.52
2019-04-23T16:39:40.419Z,16.20
2019-04-23T16:41:54.790Z,18.98
2019-04-23T16:44:06.281Z,18.17
2019-04-23T16:46:15.902Z,19.62
2019-04-23T16:50:40.941Z,13.62
2019-04-23T16:52:42.257Z,13.98
2019-04-23T17:01:12.354Z,18.40
2019-04-23T17:05:39.479Z,17.00
2019-04-23T17:08:06.668Z,18.62
2019-04-23T17:12:10.473Z,24.10
2019-04-23T17:14:21.559Z,17.42
2019-04-23T17:16:33.926Z,15.28
2019-04-23T17:18:38.837Z,20.70
2019-04-23T17:20:52.046Z,21.93
2019-04-23T17:23:05.232Z,15.75
2019-04-23T17:25:15.343Z,16.05
2019-04-23T17:29:28.582Z,18.50
2019-04-23T17:31:39.545Z,20.00
2019-04-23T17:33:56.443Z,16.80
2019-04-23T17:38:52.991Z,18.85
2019-04-23T17:41:13.808Z,21.05
2019-04-23T17:43:14.744Z,18.92
2019-04-23T17:45:40.868Z,16.12
2019-04-23T17:48:07.159Z,21.17
2019-04-23T17:50:13.648Z,17.85
2019-04-23T17:54:36.701Z,22.82
2019-04-23T17:57:05.439Z,24.85
2019-04-23T17:58:58.630Z,73.83
2019-04-23T18:01:17.748Z,61.85
2019-04-23T18:03:13.041Z,38.90
2019-04-23T18:05:18.256Z,32.03
2019-04-23T18:09:49.448Z,21.15
2019-04-23T18:14:02.342Z,29.37
2019-04-23T18:16:15.947Z,19.65
2019-04-23T18:18:33.590Z,33.48
2019-04-23T18:20:44.011Z,28.20
2019-04-23T18:23:00.499Z,27.25
2019-04-23T18:32:07.563Z,36.77
2019-04-23T18:34:10.129Z,34.10
2019-04-23T18:36:13.199Z,42.48
2019-04-23T18:40:54.267Z,31.50
2019-04-23T18:45:03.595Z,24.20
2019-04-23T18:47:20.916Z,30.75
2019-04-23T18:49:20.162Z,35.03
2019-04-23T18:51:21.469Z,23.92
2019-04-23T18:53:43.532Z,17.17
2019-04-23T18:56:06.666Z,23.83
2019-04-23T18:57:57.357Z,18.67
2019-04-23T19:00:18.746Z,26.23
2019-04-23T19:04:54.280Z,28.20
2019-04-23T19:07:27.446Z,24.23
2019-04-23T19:10:07.600Z,20.32
2019-04-23T19:12:16.225Z,19.80
2019-04-23T19:14:35.166Z,20.55
2019-04-23T19:18:45.181Z,21.93
2019-04-23T19:21:00.922Z,22.77
2019-04-23T19:23:11.343Z,22.62
2019-04-23T19:25:16.264Z,19.25
2019-04-23T19:27:29.922Z,17.95
2019-04-23T19:29:40.178Z,16.93
2019-04-23T19:31:56.771Z,20.13
2019-04-23T19:34:21.363Z,18.27
2019-04-23T19:36:26.149Z,19.45
2019-04-23T19:38:32.999Z,20.45
2019-04-23T19:40:50.503Z,21.10
2019-04-23T19:44:53.880Z,17.62
2019-04-23T19:47:17.102Z,17.90
2019-04-23T19:49:28.323Z,15.45
2019-04-23T19:51:42.230Z,19.90
2019-04-23T19:56:19.237Z,18.87
2019-04-23T19:58:04.980Z,20.70
2019-04-23T20:00:11.313Z,15.27
2019-04-23T20:02:27.119Z,17.55
2019-04-23T20:04:39.463Z,18.48
2019-04-23T20:11:06.613Z,16.20
2019-04-23T20:13:12.645Z,19.20
2019-04-23T20:15:14.191Z,16.20
2019-04-23T20:17:39.483Z,18.77
2019-04-23T20:22:00.347Z,17.17
2019-04-23T20:40:23.671Z,22.23
2019-04-23T20:42:39.081Z,17.87
2019-04-23T20:46:56.407Z,23.50
2019-04-23T20:49:10.970Z,21.93
2019-04-23T20:51:08.666Z,23.30
2019-04-23T20:53:13.452Z,16.80
2019-04-23T20:55:41.188Z,18.27
2019-04-23T20:57:51.712Z,17.00
2019-04-23T21:00:08.947Z,18.53
2019-04-23T21:03:06.712Z,16.50
2019-04-23T21:05:00.407Z,17.67
2019-04-23T21:07:15.961Z,18.37
2019-04-23T21:11:24.227Z,15.53
2019-04-23T21:13:50.614Z,15.55
2019-04-23T21:17:59.572Z,18.23
2019-04-23T21:20:10.548Z,15.97
2019-04-23T21:24:16.886Z,17.47
2019-04-23T21:26:26.336Z,13.73
2019-04-23T21:33:11.925Z,14.33
2019-04-23T21:35:37.061Z,14.53
2019-04-23T21:37:55.182Z,20.37
2019-04-23T21:40:46.667Z,15.47
2019-04-23T21:42:54.702Z,14.00
2019-04-23T21:44:45.658Z,16.73
2019-04-23T21:46:56.533Z,18.13
2019-04-23T21:51:32.745Z,21.03
2019-04-23T21:53:25.950Z,12.83
2019-04-23T21:55:39.125Z,17.50
2019-04-23T21:57:53.378Z,16.40
2019-04-23T21:59:56.177Z,20.50
2019-04-23T22:02:09.184Z,18.10
2019-04-23T22:08:38.646Z,17.20
2019-04-23T22:11:00.025Z,12.67
2019-04-23T22:13:02.157Z,17.40
2019-04-23T22:14:57.853Z,19.43
2019-04-23T22:17:15.347Z,12.10
2019-04-23T22:21:41.165Z,14.43
2019-04-23T22:23:52.617Z,14.03
2019-04-23T22:25:56.913Z,14.23
2019-04-23T22:27:58.196Z,18.03
2019-04-23T22:30:02.940Z,17.27
2019-04-23T22:32:23.405Z,19.00
2019-04-23T22:34:36.828Z,12.33
2019-04-23T22:36:39.370Z,15.27
2019-04-23T22:38:49.197Z,16.47
2019-04-23T22:41:01.769Z,13.63
2019-04-23T22:47:32.405Z,18.00
2019-04-23T22:49:45.317Z,19.33
2019-04-23T22:51:55.109Z,18.67
2019-04-23T22:56:12.122Z,20.00
2019-04-23T22:58:09.623Z,15.93
2019-04-23T23:00:46.392Z,15.23
2019-04-23T23:02:58.027Z,16.53
2019-04-23T23:09:34.237Z,16.13
2019-04-23T23:11:34.915Z,12.23
2019-04-23T23:13:57.465Z,15.03
2019-04-23T23:15:53.314Z,13.80
2019-04-23T23:18:07.319Z,16.27
2019-04-23T23:22:41.438Z,12.03
2019-04-23T23:24:27.293Z,15.70
2019-04-23T23:26:47.841Z,16.83
2019-04-23T23:28:44.733Z,11.10
2019-04-23T23:31:05.397Z,12.23
2019-04-23T23:33:14.830Z,15.93
2019-04-23T23:35:28.405Z,12.43
2019-04-23T23:37:19.205Z,14.40
2019-04-23T23:39:54.924Z,12.90
2019-04-23T23:41:53.008Z,17.47
2019-04-23T23:44:26.263Z,11.77
2019-04-23T23:46:20.579Z,14.87
2019-04-23T23:50:35.093Z,11.17
2019-04-23T23:52:51.740Z,11.17
2019-04-23T23:54:57.819Z,11.87
